sensor_id;sensor_type;location;lat;lon;timestamp;temperature;humidity
8707;DHT22;4390;49.302;9.306;2022-09-12T00:01:50;13.50;97.20
8707;DHT22;4390;49.302;9.306;2022-09-12T00:04:17;13.60;96.80
8707;DHT22;4390;49.302;9.306;2022-09-12T00:06:43;13.70;96.60
8707;DHT22;4390;49.302;9.306;2022-09-12T00:09:12;13.80;96.10
8707;DHT22;4390;49.302;9.306;2022-09-12T00:11:42;13.80;96.40
8707;DHT22;4390;49.302;9.306;2022-09-12T00:14:12;13.70;96.40
8707;DHT22;4390;49.302;9.306;2022-09-12T00:16:39;13.50;96.80
8707;DHT22;4390;49.302;9.306;2022-09-12T00:19:06;13.50;96.80
8707;DHT22;4390;49.302;9.306;2022-09-12T00:21:35;13.60;96.50
8707;DHT22;4390;49.302;9.306;2022-09-12T00:24:02;13.50;96.80
8707;DHT22;4390;49.302;9.306;2022-09-12T00:26:29;13.60;96.70
8707;DHT22;4390;49.302;9.306;2022-09-12T00:28:56;13.60;96.40
8707;DHT22;4390;49.302;9.306;2022-09-12T00:31:24;13.60;96.20
8707;DHT22;4390;49.302;9.306;2022-09-12T00:33:52;13.50;96.30
8707;DHT22;4390;49.302;9.306;2022-09-12T00:36:22;13.50;96.60
8707;DHT22;4390;49.302;9.306;2022-09-12T00:38:50;13.40;96.70
8707;DHT22;4390;49.302;9.306;2022-09-12T00:41:25;13.30;96.80
8707;DHT22;4390;49.302;9.306;2022-09-12T00:43:56;13.30;97.20
8707;DHT22;4390;49.302;9.306;2022-09-12T00:46:38;13.30;97.00
8707;DHT22;4390;49.302;9.306;2022-09-12T00:49:26;13.50;96.40
8707;DHT22;4390;49.302;9.306;2022-09-12T00:52:07;13.50;96.30
8707;DHT22;4390;49.302;9.306;2022-09-12T00:54:40;13.60;95.80
8707;DHT22;4390;49.302;9.306;2022-09-12T00:57:08;13.60;95.70
8707;DHT22;4390;49.302;9.306;2022-09-12T00:59:47;13.60;95.60
8707;DHT22;4390;49.302;9.306;2022-09-12T01:02:14;13.60;95.50
8707;DHT22;4390;49.302;9.306;2022-09-12T01:04:42;13.80;95.20
8707;DHT22;4390;49.302;9.306;2022-09-12T01:07:10;13.70;95.00
8707;DHT22;4390;49.302;9.306;2022-09-12T01:09:38;13.60;95.20
8707;DHT22;4390;49.302;9.306;2022-09-12T01:12:06;13.40;95.80
8707;DHT22;4390;49.302;9.306;2022-09-12T01:14:33;13.30;96.10
8707;DHT22;4390;49.302;9.306;2022-09-12T01:17:00;13.20;96.60
8707;DHT22;4390;49.302;9.306;2022-09-12T01:24:52;13.20;96.20
8707;DHT22;4390;49.302;9.306;2022-09-12T01:27:51;13.40;95.70
8707;DHT22;4390;49.302;9.306;2022-09-12T01:30:33;13.50;95.50
8707;DHT22;4390;49.302;9.306;2022-09-12T01:34:07;13.40;95.90
8707;DHT22;4390;49.302;9.306;2022-09-12T01:39:36;13.30;96.30
8707;DHT22;4390;49.302;9.306;2022-09-12T01:45:05;13.00;96.90
8707;DHT22;4390;49.302;9.306;2022-09-12T01:47:40;13.00;97.10
8707;DHT22;4390;49.302;9.306;2022-09-12T01:50:20;13.10;96.70
8707;DHT22;4390;49.302;9.306;2022-09-12T01:53:38;13.00;96.80
8707;DHT22;4390;49.302;9.306;2022-09-12T01:56:00;13.00;97.10
8707;DHT22;4390;49.302;9.306;2022-09-12T01:58:42;12.90;97.40
8707;DHT22;4390;49.302;9.306;2022-09-12T02:01:26;12.80;97.50
8707;DHT22;4390;49.302;9.306;2022-09-12T02:04:11;12.60;97.80
8707;DHT22;4390;49.302;9.306;2022-09-12T02:06:53;12.60;98.20
8707;DHT22;4390;49.302;9.306;2022-09-12T02:09:34;12.60;98.10
8707;DHT22;4390;49.302;9.306;2022-09-12T02:12:03;12.60;98.10
8707;DHT22;4390;49.302;9.306;2022-09-12T02:14:36;12.80;97.60
8707;DHT22;4390;49.302;9.306;2022-09-12T02:17:17;12.90;97.20
8707;DHT22;4390;49.302;9.306;2022-09-12T02:19:53;12.80;97.40
8707;DHT22;4390;49.302;9.306;2022-09-12T02:22:22;12.60;97.40
8707;DHT22;4390;49.302;9.306;2022-09-12T02:24:53;12.30;98.10
8707;DHT22;4390;49.302;9.306;2022-09-12T02:27:32;12.30;98.30
8707;DHT22;4390;49.302;9.306;2022-09-12T02:30:04;12.50;97.70
8707;DHT22;4390;49.302;9.306;2022-09-12T02:32:35;12.30;98.00
8707;DHT22;4390;49.302;9.306;2022-09-12T02:35:05;12.30;98.20
8707;DHT22;4390;49.302;9.306;2022-09-12T02:40:25;12.20;98.30
8707;DHT22;4390;49.302;9.306;2022-09-12T02:42:52;12.30;98.00
8707;DHT22;4390;49.302;9.306;2022-09-12T02:45:18;12.30;97.90
8707;DHT22;4390;49.302;9.306;2022-09-12T02:47:49;12.20;97.80
8707;DHT22;4390;49.302;9.306;2022-09-12T02:50:18;12.20;97.90
8707;DHT22;4390;49.302;9.306;2022-09-12T02:52:45;12.40;97.50
8707;DHT22;4390;49.302;9.306;2022-09-12T02:55:13;12.40;97.10
8707;DHT22;4390;49.302;9.306;2022-09-12T02:57:40;12.40;96.80
8707;DHT22;4390;49.302;9.306;2022-09-12T03:00:07;12.30;96.70
8707;DHT22;4390;49.302;9.306;2022-09-12T03:03:05;12.10;97.10
8707;DHT22;4390;49.302;9.306;2022-09-12T03:05:37;12.30;96.80
8707;DHT22;4390;49.302;9.306;2022-09-12T03:11:14;12.50;96.30
8707;DHT22;4390;49.302;9.306;2022-09-12T03:16:57;12.30;96.60
8707;DHT22;4390;49.302;9.306;2022-09-12T03:20:00;12.20;97.00
8707;DHT22;4390;49.302;9.306;2022-09-12T03:25:30;12.10;96.80
8707;DHT22;4390;49.302;9.306;2022-09-12T03:30:39;12.10;96.90
8707;DHT22;4390;49.302;9.306;2022-09-12T03:33:10;12.10;96.90
8707;DHT22;4390;49.302;9.306;2022-09-12T03:35:37;12.10;97.00
8707;DHT22;4390;49.302;9.306;2022-09-12T03:38:04;12.10;97.00
8707;DHT22;4390;49.302;9.306;2022-09-12T03:40:34;12.10;96.90
8707;DHT22;4390;49.302;9.306;2022-09-12T03:43:02;11.90;96.90
8707;DHT22;4390;49.302;9.306;2022-09-12T03:45:29;11.90;97.10
8707;DHT22;4390;49.302;9.306;2022-09-12T03:47:56;11.80;97.10
8707;DHT22;4390;49.302;9.306;2022-09-12T03:50:23;11.70;97.30
8707;DHT22;4390;49.302;9.306;2022-09-12T03:52:49;11.70;97.00
8707;DHT22;4390;49.302;9.306;2022-09-12T03:55:16;11.60;97.20
8707;DHT22;4390;49.302;9.306;2022-09-12T03:57:43;11.60;97.10
8707;DHT22;4390;49.302;9.306;2022-09-12T04:00:10;11.60;97.20
8707;DHT22;4390;49.302;9.306;2022-09-12T04:02:43;11.60;97.10
8707;DHT22;4390;49.302;9.306;2022-09-12T04:05:09;11.60;97.20
8707;DHT22;4390;49.302;9.306;2022-09-12T04:07:36;11.60;97.00
8707;DHT22;4390;49.302;9.306;2022-09-12T04:10:03;11.50;97.20
8707;DHT22;4390;49.302;9.306;2022-09-12T04:12:30;11.50;97.20
8707;DHT22;4390;49.302;9.306;2022-09-12T04:14:57;11.50;97.40
8707;DHT22;4390;49.302;9.306;2022-09-12T04:17:23;11.50;97.30
8707;DHT22;4390;49.302;9.306;2022-09-12T04:19:50;11.50;97.10
8707;DHT22;4390;49.302;9.306;2022-09-12T04:22:17;11.40;97.40
8707;DHT22;4390;49.302;9.306;2022-09-12T04:24:43;11.50;97.30
8707;DHT22;4390;49.302;9.306;2022-09-12T04:27:10;11.60;96.80
8707;DHT22;4390;49.302;9.306;2022-09-12T04:29:37;11.80;96.30
8707;DHT22;4390;49.302;9.306;2022-09-12T04:32:03;11.60;96.20
8707;DHT22;4390;49.302;9.306;2022-09-12T04:34:30;11.50;96.60
8707;DHT22;4390;49.302;9.306;2022-09-12T04:36:58;11.40;96.70
8707;DHT22;4390;49.302;9.306;2022-09-12T04:39:24;11.60;96.70
8707;DHT22;4390;49.302;9.306;2022-09-12T04:41:51;11.70;96.10
8707;DHT22;4390;49.302;9.306;2022-09-12T04:44:18;11.70;96.10
8707;DHT22;4390;49.302;9.306;2022-09-12T04:46:45;11.50;96.20
8707;DHT22;4390;49.302;9.306;2022-09-12T04:49:13;11.40;96.60
8707;DHT22;4390;49.302;9.306;2022-09-12T04:51:42;11.30;96.60
8707;DHT22;4390;49.302;9.306;2022-09-12T04:54:17;11.30;96.70
8707;DHT22;4390;49.302;9.306;2022-09-12T04:56:49;11.30;96.70
8707;DHT22;4390;49.302;9.306;2022-09-12T04:59:17;11.30;96.80
8707;DHT22;4390;49.302;9.306;2022-09-12T05:01:45;11.40;96.90
8707;DHT22;4390;49.302;9.306;2022-09-12T05:04:12;11.50;96.60
8707;DHT22;4390;49.302;9.306;2022-09-12T05:06:40;11.50;96.60
8707;DHT22;4390;49.302;9.306;2022-09-12T05:09:09;11.60;96.10
8707;DHT22;4390;49.302;9.306;2022-09-12T05:11:38;11.30;96.60
8707;DHT22;4390;49.302;9.306;2022-09-12T05:14:25;11.10;97.20
8707;DHT22;4390;49.302;9.306;2022-09-12T05:16:52;11.30;97.00
8707;DHT22;4390;49.302;9.306;2022-09-12T05:19:19;11.40;96.80
8707;DHT22;4390;49.302;9.306;2022-09-12T05:21:46;11.50;96.50
8707;DHT22;4390;49.302;9.306;2022-09-12T05:24:12;11.40;96.40
8707;DHT22;4390;49.302;9.306;2022-09-12T05:26:39;11.50;96.50
8707;DHT22;4390;49.302;9.306;2022-09-12T05:29:05;11.50;96.20
8707;DHT22;4390;49.302;9.306;2022-09-12T05:31:33;11.40;96.80
8707;DHT22;4390;49.302;9.306;2022-09-12T05:34:00;11.30;96.60
8707;DHT22;4390;49.302;9.306;2022-09-12T05:36:28;11.40;97.00
8707;DHT22;4390;49.302;9.306;2022-09-12T05:38:55;11.30;97.10
8707;DHT22;4390;49.302;9.306;2022-09-12T05:41:24;11.50;97.00
8707;DHT22;4390;49.302;9.306;2022-09-12T05:43:57;11.30;96.80
8707;DHT22;4390;49.302;9.306;2022-09-12T05:46:26;11.30;97.40
8707;DHT22;4390;49.302;9.306;2022-09-12T05:48:54;11.30;97.30
8707;DHT22;4390;49.302;9.306;2022-09-12T05:51:27;11.40;97.40
8707;DHT22;4390;49.302;9.306;2022-09-12T05:53:56;11.60;96.80
8707;DHT22;4390;49.302;9.306;2022-09-12T05:56:26;11.60;97.10
8707;DHT22;4390;49.302;9.306;2022-09-12T05:58:58;11.80;96.80
8707;DHT22;4390;49.302;9.306;2022-09-12T06:01:26;11.60;97.10
8707;DHT22;4390;49.302;9.306;2022-09-12T06:03:55;11.60;97.50
8707;DHT22;4390;49.302;9.306;2022-09-12T06:06:23;11.80;97.40
8707;DHT22;4390;49.302;9.306;2022-09-12T06:08:53;11.80;97.20
8707;DHT22;4390;49.302;9.306;2022-09-12T06:11:22;11.70;97.60
8707;DHT22;4390;49.302;9.306;2022-09-12T06:13:51;11.90;97.40
8707;DHT22;4390;49.302;9.306;2022-09-12T06:16:23;12.10;97.00
8707;DHT22;4390;49.302;9.306;2022-09-12T06:18:53;12.00;97.20
8707;DHT22;4390;49.302;9.306;2022-09-12T06:21:21;12.20;97.00
8707;DHT22;4390;49.302;9.306;2022-09-12T06:23:48;12.20;96.90
8707;DHT22;4390;49.302;9.306;2022-09-12T06:26:16;12.10;96.90
8707;DHT22;4390;49.302;9.306;2022-09-12T06:28:44;12.10;97.10
8707;DHT22;4390;49.302;9.306;2022-09-12T06:31:13;12.00;97.60
8707;DHT22;4390;49.302;9.306;2022-09-12T06:33:42;12.10;97.50
8707;DHT22;4390;49.302;9.306;2022-09-12T06:36:15;12.20;97.60
8707;DHT22;4390;49.302;9.306;2022-09-12T06:38:42;12.30;97.20
8707;DHT22;4390;49.302;9.306;2022-09-12T06:41:11;12.20;97.40
8707;DHT22;4390;49.302;9.306;2022-09-12T06:43:39;12.40;97.60
8707;DHT22;4390;49.302;9.306;2022-09-12T06:46:07;12.40;97.50
8707;DHT22;4390;49.302;9.306;2022-09-12T06:48:34;12.70;97.10
8707;DHT22;4390;49.302;9.306;2022-09-12T06:51:14;12.90;96.80
8707;DHT22;4390;49.302;9.306;2022-09-12T06:53:42;12.90;96.50
8707;DHT22;4390;49.302;9.306;2022-09-12T06:56:12;12.90;96.60
8707;DHT22;4390;49.302;9.306;2022-09-12T06:58:40;13.00;96.60
8707;DHT22;4390;49.302;9.306;2022-09-12T07:01:13;13.10;96.70
8707;DHT22;4390;49.302;9.306;2022-09-12T07:03:42;13.20;96.70
8707;DHT22;4390;49.302;9.306;2022-09-12T07:06:10;13.30;96.50
8707;DHT22;4390;49.302;9.306;2022-09-12T07:08:38;13.40;96.10
8707;DHT22;4390;49.302;9.306;2022-09-12T07:11:22;13.30;96.20
8707;DHT22;4390;49.302;9.306;2022-09-12T07:13:51;13.30;96.60
8707;DHT22;4390;49.302;9.306;2022-09-12T07:16:19;13.40;96.90
8707;DHT22;4390;49.302;9.306;2022-09-12T07:18:50;13.40;97.20
8707;DHT22;4390;49.302;9.306;2022-09-12T07:21:17;13.40;97.30
8707;DHT22;4390;49.302;9.306;2022-09-12T07:23:44;13.50;97.30
8707;DHT22;4390;49.302;9.306;2022-09-12T07:26:13;13.70;97.10
8707;DHT22;4390;49.302;9.306;2022-09-12T07:28:40;13.90;96.80
8707;DHT22;4390;49.302;9.306;2022-09-12T07:31:12;13.90;96.80
8707;DHT22;4390;49.302;9.306;2022-09-12T07:33:40;14.00;97.00
8707;DHT22;4390;49.302;9.306;2022-09-12T07:36:13;14.20;96.70
8707;DHT22;4390;49.302;9.306;2022-09-12T07:38:40;14.20;96.80
8707;DHT22;4390;49.302;9.306;2022-09-12T07:41:18;14.40;97.00
8707;DHT22;4390;49.302;9.306;2022-09-12T07:43:47;14.50;96.50
8707;DHT22;4390;49.302;9.306;2022-09-12T07:46:14;14.50;96.90
8707;DHT22;4390;49.302;9.306;2022-09-12T07:48:40;14.70;96.70
8707;DHT22;4390;49.302;9.306;2022-09-12T07:51:09;15.00;96.60
8707;DHT22;4390;49.302;9.306;2022-09-12T07:53:38;15.20;96.40
8707;DHT22;4390;49.302;9.306;2022-09-12T07:56:06;15.50;96.00
8707;DHT22;4390;49.302;9.306;2022-09-12T07:58:35;15.40;95.70
8707;DHT22;4390;49.302;9.306;2022-09-12T08:01:07;15.50;96.10
8707;DHT22;4390;49.302;9.306;2022-09-12T08:03:38;15.70;95.50
8707;DHT22;4390;49.302;9.306;2022-09-12T08:06:10;15.70;95.40
8707;DHT22;4390;49.302;9.306;2022-09-12T08:08:37;15.70;95.40
8707;DHT22;4390;49.302;9.306;2022-09-12T08:11:06;15.90;95.40
8707;DHT22;4390;49.302;9.306;2022-09-12T08:13:35;16.00;94.70
8707;DHT22;4390;49.302;9.306;2022-09-12T08:16:05;16.00;94.70
8707;DHT22;4390;49.302;9.306;2022-09-12T08:18:34;16.00;94.80
8707;DHT22;4390;49.302;9.306;2022-09-12T08:21:04;16.10;94.90
8707;DHT22;4390;49.302;9.306;2022-09-12T08:23:32;16.20;94.80
8707;DHT22;4390;49.302;9.306;2022-09-12T08:26:00;16.40;94.50
8707;DHT22;4390;49.302;9.306;2022-09-12T08:28:33;16.70;94.30
8707;DHT22;4390;49.302;9.306;2022-09-12T08:31:02;16.70;93.80
8707;DHT22;4390;49.302;9.306;2022-09-12T08:33:30;16.90;93.10
8707;DHT22;4390;49.302;9.306;2022-09-12T08:36:19;16.90;92.90
8707;DHT22;4390;49.302;9.306;2022-09-12T08:38:53;17.10;93.00
8707;DHT22;4390;49.302;9.306;2022-09-12T08:42:17;17.10;93.10
8707;DHT22;4390;49.302;9.306;2022-09-12T08:47:31;17.50;93.00
8707;DHT22;4390;49.302;9.306;2022-09-12T08:52:56;17.90;92.00
8707;DHT22;4390;49.302;9.306;2022-09-12T08:55:30;18.00;91.80
8707;DHT22;4390;49.302;9.306;2022-09-12T08:58:22;18.00;91.00
8707;DHT22;4390;49.302;9.306;2022-09-12T09:01:06;18.10;91.00
8707;DHT22;4390;49.302;9.306;2022-09-12T09:17:43;18.70;90.00
8707;DHT22;4390;49.302;9.306;2022-09-12T09:20:25;18.90;89.00
8707;DHT22;4390;49.302;9.306;2022-09-12T09:25:50;19.30;88.20
8707;DHT22;4390;49.302;9.306;2022-09-12T09:28:45;19.60;87.30
8707;DHT22;4390;49.302;9.306;2022-09-12T09:31:14;19.70;85.70
8707;DHT22;4390;49.302;9.306;2022-09-12T09:33:42;19.80;86.30
8707;DHT22;4390;49.302;9.306;2022-09-12T09:39:08;20.00;85.50
8707;DHT22;4390;49.302;9.306;2022-09-12T09:42:09;20.20;85.40
8707;DHT22;4390;49.302;9.306;2022-09-12T09:44:37;20.40;84.20
8707;DHT22;4390;49.302;9.306;2022-09-12T09:47:03;20.40;84.50
8707;DHT22;4390;49.302;9.306;2022-09-12T09:49:32;20.10;83.70
8707;DHT22;4390;49.302;9.306;2022-09-12T09:51:59;20.00;84.60
8707;DHT22;4390;49.302;9.306;2022-09-12T09:54:43;20.20;84.10
8707;DHT22;4390;49.302;9.306;2022-09-12T10:00:32;21.00;83.20
8707;DHT22;4390;49.302;9.306;2022-09-12T10:05:50;21.30;81.60
8707;DHT22;4390;49.302;9.306;2022-09-12T10:08:25;21.30;82.40
8707;DHT22;4390;49.302;9.306;2022-09-12T10:10:58;21.80;81.40
8707;DHT22;4390;49.302;9.306;2022-09-12T10:13:41;22.20;80.60
8707;DHT22;4390;49.302;9.306;2022-09-12T10:16:20;22.90;79.40
8707;DHT22;4390;49.302;9.306;2022-09-12T10:18:49;23.80;77.60
8707;DHT22;4390;49.302;9.306;2022-09-12T10:21:28;24.30;76.40
8707;DHT22;4390;49.302;9.306;2022-09-12T10:24:09;24.90;75.30
8707;DHT22;4390;49.302;9.306;2022-09-12T10:26:41;25.50;73.10
8707;DHT22;4390;49.302;9.306;2022-09-12T10:29:27;26.00;72.80
8707;DHT22;4390;49.302;9.306;2022-09-12T10:31:57;26.60;71.20
8707;DHT22;4390;49.302;9.306;2022-09-12T10:34:28;27.40;71.10
8707;DHT22;4390;49.302;9.306;2022-09-12T10:37:06;27.70;69.00
8707;DHT22;4390;49.302;9.306;2022-09-12T10:39:34;27.70;69.90
8707;DHT22;4390;49.302;9.306;2022-09-12T10:42:03;28.00;69.50
8707;DHT22;4390;49.302;9.306;2022-09-12T10:44:33;28.50;68.90
8707;DHT22;4390;49.302;9.306;2022-09-12T10:47:20;28.60;67.60
8707;DHT22;4390;49.302;9.306;2022-09-12T10:49:47;28.30;68.10
8707;DHT22;4390;49.302;9.306;2022-09-12T10:52:21;28.20;67.80
8707;DHT22;4390;49.302;9.306;2022-09-12T10:54:51;27.90;68.30
8707;DHT22;4390;49.302;9.306;2022-09-12T10:57:38;28.10;68.70
8707;DHT22;4390;49.302;9.306;2022-09-12T11:00:14;27.90;68.90
8707;DHT22;4390;49.302;9.306;2022-09-12T11:14:08;26.30;70.20
8707;DHT22;4390;49.302;9.306;2022-09-12T11:17:18;26.40;70.00
8707;DHT22;4390;49.302;9.306;2022-09-12T11:20:20;26.20;70.20
8707;DHT22;4390;49.302;9.306;2022-09-12T11:23:15;26.40;70.60
8707;DHT22;4390;49.302;9.306;2022-09-12T11:29:28;26.00;70.10
8707;DHT22;4390;49.302;9.306;2022-09-12T11:35:24;26.00;70.90
8707;DHT22;4390;49.302;9.306;2022-09-12T11:38:13;26.10;70.40
8707;DHT22;4390;49.302;9.306;2022-09-12T11:43:37;26.70;70.60
8707;DHT22;4390;49.302;9.306;2022-09-12T11:46:17;26.80;69.80
8707;DHT22;4390;49.302;9.306;2022-09-12T11:48:58;27.00;69.90
8707;DHT22;4390;49.302;9.306;2022-09-12T11:54:21;26.90;69.10
8707;DHT22;4390;49.302;9.306;2022-09-12T11:56:54;26.80;70.00
8707;DHT22;4390;49.302;9.306;2022-09-12T11:59:39;26.90;69.00
8707;DHT22;4390;49.302;9.306;2022-09-12T12:02:19;26.50;69.60
8707;DHT22;4390;49.302;9.306;2022-09-12T12:05:18;26.60;69.40
8707;DHT22;4390;49.302;9.306;2022-09-12T12:07:57;26.80;68.50
8707;DHT22;4390;49.302;9.306;2022-09-12T12:10:34;26.80;69.20
8707;DHT22;4390;49.302;9.306;2022-09-12T12:19:02;27.20;67.70
8707;DHT22;4390;49.302;9.306;2022-09-12T12:21:46;27.00;67.30
8707;DHT22;4390;49.302;9.306;2022-09-12T12:24:20;27.10;67.20
8707;DHT22;4390;49.302;9.306;2022-09-12T12:29:42;27.00;68.10
8707;DHT22;4390;49.302;9.306;2022-09-12T12:34:40;27.00;67.60
8707;DHT22;4390;49.302;9.306;2022-09-12T12:50:23;26.70;68.40
8707;DHT22;4390;49.302;9.306;2022-09-12T12:53:18;26.50;68.70
8707;DHT22;4390;49.302;9.306;2022-09-12T12:55:49;26.80;67.80
8707;DHT22;4390;49.302;9.306;2022-09-12T13:01:18;26.60;67.90
8707;DHT22;4390;49.302;9.306;2022-09-12T13:04:01;26.80;67.90
8707;DHT22;4390;49.302;9.306;2022-09-12T13:06:37;27.10;67.90
8707;DHT22;4390;49.302;9.306;2022-09-12T13:09:26;27.40;67.30
8707;DHT22;4390;49.302;9.306;2022-09-12T13:14:34;27.80;67.30
8707;DHT22;4390;49.302;9.306;2022-09-12T13:17:04;28.10;65.60
8707;DHT22;4390;49.302;9.306;2022-09-12T13:19:35;27.80;65.60
8707;DHT22;4390;49.302;9.306;2022-09-12T13:22:04;27.50;66.60
8707;DHT22;4390;49.302;9.306;2022-09-12T13:24:33;27.50;66.30
8707;DHT22;4390;49.302;9.306;2022-09-12T13:27:00;27.50;67.00
8707;DHT22;4390;49.302;9.306;2022-09-12T13:29:27;27.80;66.90
8707;DHT22;4390;49.302;9.306;2022-09-12T13:31:59;28.00;66.10
8707;DHT22;4390;49.302;9.306;2022-09-12T13:34:34;28.00;66.60
8707;DHT22;4390;49.302;9.306;2022-09-12T13:37:11;28.00;66.00
8707;DHT22;4390;49.302;9.306;2022-09-12T13:39:48;28.10;65.60
8707;DHT22;4390;49.302;9.306;2022-09-12T13:42:24;28.40;65.90
8707;DHT22;4390;49.302;9.306;2022-09-12T13:45:14;28.40;65.20
8707;DHT22;4390;49.302;9.306;2022-09-12T13:48:00;28.30;64.70
8707;DHT22;4390;49.302;9.306;2022-09-12T13:50:31;28.30;65.20
8707;DHT22;4390;49.302;9.306;2022-09-12T13:53:01;28.30;65.70
8707;DHT22;4390;49.302;9.306;2022-09-12T13:55:35;28.30;64.80
8707;DHT22;4390;49.302;9.306;2022-09-12T13:58:05;28.20;65.90
8707;DHT22;4390;49.302;9.306;2022-09-12T14:00:33;28.20;66.00
8707;DHT22;4390;49.302;9.306;2022-09-12T14:03:00;28.30;66.10
8707;DHT22;4390;49.302;9.306;2022-09-12T14:05:54;28.40;66.00
8707;DHT22;4390;49.302;9.306;2022-09-12T14:08:22;28.50;65.90
8707;DHT22;4390;49.302;9.306;2022-09-12T14:10:50;28.50;65.60
8707;DHT22;4390;49.302;9.306;2022-09-12T14:13:22;28.30;64.80
8707;DHT22;4390;49.302;9.306;2022-09-12T14:15:52;28.20;65.50
8707;DHT22;4390;49.302;9.306;2022-09-12T14:18:28;27.80;65.30
8707;DHT22;4390;49.302;9.306;2022-09-12T14:21:08;27.80;66.10
8707;DHT22;4390;49.302;9.306;2022-09-12T14:23:41;28.00;67.20
8707;DHT22;4390;49.302;9.306;2022-09-12T14:26:10;28.20;66.30
8707;DHT22;4390;49.302;9.306;2022-09-12T14:28:40;28.20;65.00
8707;DHT22;4390;49.302;9.306;2022-09-12T14:33:49;28.10;64.80
8707;DHT22;4390;49.302;9.306;2022-09-12T14:39:01;27.70;64.70
8707;DHT22;4390;49.302;9.306;2022-09-12T14:41:32;27.60;65.70
8707;DHT22;4390;49.302;9.306;2022-09-12T14:44:02;27.60;65.10
8707;DHT22;4390;49.302;9.306;2022-09-12T14:46:35;27.70;64.40
8707;DHT22;4390;49.302;9.306;2022-09-12T14:56:55;27.30;65.00
8707;DHT22;4390;49.302;9.306;2022-09-12T14:59:36;27.20;65.80
8707;DHT22;4390;49.302;9.306;2022-09-12T15:10:15;27.10;65.90
8707;DHT22;4390;49.302;9.306;2022-09-12T15:12:44;27.30;66.20
8707;DHT22;4390;49.302;9.306;2022-09-12T15:15:19;27.40;65.90
8707;DHT22;4390;49.302;9.306;2022-09-12T15:17:46;27.40;66.60
8707;DHT22;4390;49.302;9.306;2022-09-12T15:20:13;27.50;65.40
8707;DHT22;4390;49.302;9.306;2022-09-12T15:22:40;27.50;64.70
8707;DHT22;4390;49.302;9.306;2022-09-12T15:25:09;27.30;65.00
8707;DHT22;4390;49.302;9.306;2022-09-12T15:27:36;26.80;65.50
8707;DHT22;4390;49.302;9.306;2022-09-12T15:30:07;26.50;65.70
8707;DHT22;4390;49.302;9.306;2022-09-12T15:32:35;26.60;66.40
8707;DHT22;4390;49.302;9.306;2022-09-12T15:35:02;26.70;65.40
8707;DHT22;4390;49.302;9.306;2022-09-12T15:37:29;26.70;66.10
8707;DHT22;4390;49.302;9.306;2022-09-12T15:39:56;26.60;65.70
8707;DHT22;4390;49.302;9.306;2022-09-12T15:42:27;26.50;66.00
8707;DHT22;4390;49.302;9.306;2022-09-12T15:44:54;26.50;66.30
8707;DHT22;4390;49.302;9.306;2022-09-12T15:47:27;26.30;65.90
8707;DHT22;4390;49.302;9.306;2022-09-12T15:49:54;26.20;66.30
8707;DHT22;4390;49.302;9.306;2022-09-12T15:52:21;26.20;67.60
8707;DHT22;4390;49.302;9.306;2022-09-12T15:54:47;26.10;67.60
8707;DHT22;4390;49.302;9.306;2022-09-12T15:57:14;26.10;67.90
8707;DHT22;4390;49.302;9.306;2022-09-12T15:59:42;26.00;67.40
8707;DHT22;4390;49.302;9.306;2022-09-12T16:02:09;25.90;69.10
8707;DHT22;4390;49.302;9.306;2022-09-12T16:04:37;25.70;69.00
8707;DHT22;4390;49.302;9.306;2022-09-12T16:07:03;25.60;69.10
8707;DHT22;4390;49.302;9.306;2022-09-12T16:09:30;25.40;70.60
8707;DHT22;4390;49.302;9.306;2022-09-12T16:11:57;25.00;71.10
8707;DHT22;4390;49.302;9.306;2022-09-12T16:14:23;24.80;71.70
8707;DHT22;4390;49.302;9.306;2022-09-12T16:16:52;24.90;71.30
8707;DHT22;4390;49.302;9.306;2022-09-12T16:19:22;24.80;70.40
8707;DHT22;4390;49.302;9.306;2022-09-12T16:21:50;24.90;71.00
8707;DHT22;4390;49.302;9.306;2022-09-12T16:24:16;24.70;71.40
8707;DHT22;4390;49.302;9.306;2022-09-12T16:26:43;24.60;72.20
8707;DHT22;4390;49.302;9.306;2022-09-12T16:29:12;24.60;72.50
8707;DHT22;4390;49.302;9.306;2022-09-12T16:31:39;24.50;73.10
8707;DHT22;4390;49.302;9.306;2022-09-12T16:34:06;24.10;73.50
8707;DHT22;4390;49.302;9.306;2022-09-12T16:36:34;23.80;74.10
8707;DHT22;4390;49.302;9.306;2022-09-12T16:39:01;23.60;74.70
8707;DHT22;4390;49.302;9.306;2022-09-12T16:41:27;23.40;75.40
8707;DHT22;4390;49.302;9.306;2022-09-12T16:43:54;23.30;75.60
8707;DHT22;4390;49.302;9.306;2022-09-12T16:46:24;23.30;75.30
8707;DHT22;4390;49.302;9.306;2022-09-12T16:48:53;23.30;75.40
8707;DHT22;4390;49.302;9.306;2022-09-12T16:51:30;23.30;75.90
8707;DHT22;4390;49.302;9.306;2022-09-12T16:53:57;23.10;76.00
8707;DHT22;4390;49.302;9.306;2022-09-12T16:56:24;22.90;76.40
8707;DHT22;4390;49.302;9.306;2022-09-12T16:58:51;23.00;76.70
8707;DHT22;4390;49.302;9.306;2022-09-12T17:01:22;22.80;76.70
8707;DHT22;4390;49.302;9.306;2022-09-12T17:03:55;22.60;77.20
8707;DHT22;4390;49.302;9.306;2022-09-12T17:06:22;22.50;77.90
8707;DHT22;4390;49.302;9.306;2022-09-12T17:08:52;22.40;78.10
8707;DHT22;4390;49.302;9.306;2022-09-12T17:11:24;22.40;78.10
8707;DHT22;4390;49.302;9.306;2022-09-12T17:13:53;22.30;78.20
8707;DHT22;4390;49.302;9.306;2022-09-12T17:16:40;22.10;78.20
8707;DHT22;4390;49.302;9.306;2022-09-12T17:19:09;22.00;78.70
8707;DHT22;4390;49.302;9.306;2022-09-12T17:21:37;21.80;78.90
8707;DHT22;4390;49.302;9.306;2022-09-12T17:24:04;21.80;79.00
8707;DHT22;4390;49.302;9.306;2022-09-12T17:26:31;22.00;78.60
8707;DHT22;4390;49.302;9.306;2022-09-12T17:28:59;21.80;79.10
8707;DHT22;4390;49.302;9.306;2022-09-12T17:31:26;21.60;79.40
8707;DHT22;4390;49.302;9.306;2022-09-12T17:33:59;21.50;80.10
8707;DHT22;4390;49.302;9.306;2022-09-12T17:36:27;21.40;80.20
8707;DHT22;4390;49.302;9.306;2022-09-12T17:38:54;21.20;80.50
8707;DHT22;4390;49.302;9.306;2022-09-12T17:41:23;21.10;80.50
8707;DHT22;4390;49.302;9.306;2022-09-12T17:43:53;21.00;80.40
8707;DHT22;4390;49.302;9.306;2022-09-12T17:46:29;20.80;81.10
8707;DHT22;4390;49.302;9.306;2022-09-12T17:48:57;20.80;81.10
8707;DHT22;4390;49.302;9.306;2022-09-12T17:51:27;20.80;81.60
8707;DHT22;4390;49.302;9.306;2022-09-12T17:54:02;20.90;81.40
8707;DHT22;4390;49.302;9.306;2022-09-12T17:56:32;20.80;81.40
8707;DHT22;4390;49.302;9.306;2022-09-12T17:58:59;20.80;81.30
8707;DHT22;4390;49.302;9.306;2022-09-12T18:01:27;20.70;81.20
8707;DHT22;4390;49.302;9.306;2022-09-12T18:04:15;20.70;81.00
8707;DHT22;4390;49.302;9.306;2022-09-12T18:06:41;20.60;82.20
8707;DHT22;4390;49.302;9.306;2022-09-12T18:09:15;20.50;82.60
8707;DHT22;4390;49.302;9.306;2022-09-12T18:11:44;20.40;82.70
8707;DHT22;4390;49.302;9.306;2022-09-12T18:14:11;20.40;82.50
8707;DHT22;4390;49.302;9.306;2022-09-12T18:16:40;20.40;82.50
8707;DHT22;4390;49.302;9.306;2022-09-12T18:19:07;20.30;82.90
8707;DHT22;4390;49.302;9.306;2022-09-12T18:21:34;20.20;82.60
8707;DHT22;4390;49.302;9.306;2022-09-12T18:24:01;20.10;82.60
8707;DHT22;4390;49.302;9.306;2022-09-12T18:26:29;20.00;82.70
8707;DHT22;4390;49.302;9.306;2022-09-12T18:28:56;20.00;82.90
8707;DHT22;4390;49.302;9.306;2022-09-12T18:31:28;20.00;83.10
8707;DHT22;4390;49.302;9.306;2022-09-12T18:33:56;19.90;83.10
8707;DHT22;4390;49.302;9.306;2022-09-12T18:36:25;19.80;83.00
8707;DHT22;4390;49.302;9.306;2022-09-12T18:38:52;19.60;83.50
8707;DHT22;4390;49.302;9.306;2022-09-12T18:41:21;19.40;84.20
8707;DHT22;4390;49.302;9.306;2022-09-12T18:43:52;19.40;84.30
8707;DHT22;4390;49.302;9.306;2022-09-12T18:46:19;19.40;84.50